sensor_id;sensor_type;location;lat;lon;timestamp;P1;durP1;ratioP1;P2;durP2;ratioP2
38083;SDS011;23894;51.466;7.444;2023-05-10T00:00:15;5.40;;;2.80;;
38083;SDS011;23894;51.466;7.444;2023-05-10T00:02:16;6.03;;;2.85;;
38083;SDS011;23894;51.466;7.444;2023-05-10T00:04:17;5.13;;;2.85;;
38083;SDS011;23894;51.466;7.444;2023-05-10T00:06:18;5.28;;;2.70;;
38083;SDS011;23894;51.466;7.444;2023-05-10T00:08:20;5.60;;;3.00;;
38083;SDS011;23894;51.466;7.444;2023-05-10T00:10:21;7.00;;;3.08;;
38083;SDS011;23894;51.466;7.444;2023-05-10T00:12:22;5.30;;;3.08;;
38083;SDS011;23894;51.466;7.444;2023-05-10T00:14:23;6.70;;;3.47;;
38083;SDS011;23894;51.466;7.444;2023-05-10T00:16:24;8.23;;;3.35;;
38083;SDS011;23894;51.466;7.444;2023-05-10T00:18:25;6.15;;;3.58;;
38083;SDS011;23894;51.466;7.444;2023-05-10T00:20:26;5.53;;;3.50;;
38083;SDS011;23894;51.466;7.444;2023-05-10T00:22:27;8.10;;;3.83;;
38083;SDS011;23894;51.466;7.444;2023-05-10T00:24:28;6.63;;;3.97;;
38083;SDS011;23894;51.466;7.444;2023-05-10T00:26:29;9.20;;;4.13;;
38083;SDS011;23894;51.466;7.444;2023-05-10T00:28:30;6.70;;;3.88;;
38083;SDS011;23894;51.466;7.444;2023-05-10T00:30:31;11.60;;;4.00;;
38083;SDS011;23894;51.466;7.444;2023-05-10T00:32:32;5.93;;;3.83;;
38083;SDS011;23894;51.466;7.444;2023-05-10T00:34:33;7.15;;;4.50;;
38083;SDS011;23894;51.466;7.444;2023-05-10T00:36:34;6.47;;;4.30;;
38083;SDS011;23894;51.466;7.444;2023-05-10T00:38:35;6.07;;;3.95;;
38083;SDS011;23894;51.466;7.444;2023-05-10T00:40:36;7.10;;;4.65;;
38083;SDS011;23894;51.466;7.444;2023-05-10T00:42:37;8.48;;;4.97;;
38083;SDS011;23894;51.466;7.444;2023-05-10T00:44:38;6.47;;;4.50;;
38083;SDS011;23894;51.466;7.444;2023-05-10T00:46:40;6.87;;;4.50;;
38083;SDS011;23894;51.466;7.444;2023-05-10T00:48:41;7.57;;;4.73;;
38083;SDS011;23894;51.466;7.444;2023-05-10T00:50:42;8.35;;;5.07;;
38083;SDS011;23894;51.466;7.444;2023-05-10T00:52:43;7.90;;;4.88;;
38083;SDS011;23894;51.466;7.444;2023-05-10T00:54:44;6.30;;;4.55;;
38083;SDS011;23894;51.466;7.444;2023-05-10T00:56:46;8.73;;;5.00;;
38083;SDS011;23894;51.466;7.444;2023-05-10T00:58:49;8.68;;;5.32;;
38083;SDS011;23894;51.466;7.444;2023-05-10T01:00:50;9.15;;;5.47;;
38083;SDS011;23894;51.466;7.444;2023-05-10T01:02:52;7.07;;;4.72;;
38083;SDS011;23894;51.466;7.444;2023-05-10T01:04:53;7.65;;;4.93;;
38083;SDS011;23894;51.466;7.444;2023-05-10T01:06:54;6.70;;;4.85;;
38083;SDS011;23894;51.466;7.444;2023-05-10T01:08:56;8.40;;;5.70;;
38083;SDS011;23894;51.466;7.444;2023-05-10T01:10:57;7.40;;;5.27;;
38083;SDS011;23894;51.466;7.444;2023-05-10T01:12:58;8.40;;;5.90;;
38083;SDS011;23894;51.466;7.444;2023-05-10T01:15:00;9.77;;;6.47;;
38083;SDS011;23894;51.466;7.444;2023-05-10T01:17:02;9.18;;;6.85;;
38083;SDS011;23894;51.466;7.444;2023-05-10T01:19:07;11.05;;;7.55;;
38083;SDS011;23894;51.466;7.444;2023-05-10T01:21:19;11.27;;;7.80;;
38083;SDS011;23894;51.466;7.444;2023-05-10T01:23:36;10.15;;;7.10;;
38083;SDS011;23894;51.466;7.444;2023-05-10T01:30:35;11.57;;;7.50;;
38083;SDS011;23894;51.466;7.444;2023-05-10T01:32:30;10.45;;;7.18;;
38083;SDS011;23894;51.466;7.444;2023-05-10T01:34:41;9.48;;;7.53;;
38083;SDS011;23894;51.466;7.444;2023-05-10T01:36:55;11.38;;;8.57;;
38083;SDS011;23894;51.466;7.444;2023-05-10T01:39:05;12.82;;;8.20;;
38083;SDS011;23894;51.466;7.444;2023-05-10T01:43:11;11.63;;;8.23;;
38083;SDS011;23894;51.466;7.444;2023-05-10T01:50:01;11.30;;;8.50;;
38083;SDS011;23894;51.466;7.444;2023-05-10T01:52:08;12.40;;;9.30;;
38083;SDS011;23894;51.466;7.444;2023-05-10T01:54:10;11.68;;;9.52;;
38083;SDS011;23894;51.466;7.444;2023-05-10T01:56:12;13.27;;;9.98;;
38083;SDS011;23894;51.466;7.444;2023-05-10T01:58:22;14.35;;;11.13;;
38083;SDS011;23894;51.466;7.444;2023-05-10T02:00:24;13.98;;;11.05;;
38083;SDS011;23894;51.466;7.444;2023-05-10T02:02:25;14.98;;;10.82;;
38083;SDS011;23894;51.466;7.444;2023-05-10T02:04:28;12.98;;;10.40;;
38083;SDS011;23894;51.466;7.444;2023-05-10T02:06:29;14.50;;;11.27;;
38083;SDS011;23894;51.466;7.444;2023-05-10T02:08:31;16.30;;;11.50;;
38083;SDS011;23894;51.466;7.444;2023-05-10T02:10:34;13.63;;;11.38;;
38083;SDS011;23894;51.466;7.444;2023-05-10T02:12:35;12.60;;;10.85;;
38083;SDS011;23894;51.466;7.444;2023-05-10T02:14:37;12.82;;;11.20;;
38083;SDS011;23894;51.466;7.444;2023-05-10T02:16:39;13.50;;;10.98;;
38083;SDS011;23894;51.466;7.444;2023-05-10T02:18:41;16.00;;;12.20;;
38083;SDS011;23894;51.466;7.444;2023-05-10T02:20:43;14.40;;;11.13;;
38083;SDS011;23894;51.466;7.444;2023-05-10T02:22:47;11.95;;;10.30;;
38083;SDS011;23894;51.466;7.444;2023-05-10T02:24:49;11.52;;;9.48;;
38083;SDS011;23894;51.466;7.444;2023-05-10T02:26:51;11.50;;;9.50;;
38083;SDS011;23894;51.466;7.444;2023-05-10T02:28:55;12.82;;;9.77;;
38083;SDS011;23894;51.466;7.444;2023-05-10T02:30:58;11.70;;;9.63;;
38083;SDS011;23894;51.466;7.444;2023-05-10T02:32:59;11.57;;;9.35;;
38083;SDS011;23894;51.466;7.444;2023-05-10T02:35:02;13.68;;;9.48;;
38083;SDS011;23894;51.466;7.444;2023-05-10T02:37:04;10.75;;;8.82;;
38083;SDS011;23894;51.466;7.444;2023-05-10T02:39:06;10.48;;;7.80;;
38083;SDS011;23894;51.466;7.444;2023-05-10T02:41:09;9.95;;;7.22;;
38083;SDS011;23894;51.466;7.444;2023-05-10T02:43:12;9.23;;;6.60;;
38083;SDS011;23894;51.466;7.444;2023-05-10T02:45:18;10.17;;;6.80;;
38083;SDS011;23894;51.466;7.444;2023-05-10T02:47:20;9.00;;;6.33;;
38083;SDS011;23894;51.466;7.444;2023-05-10T02:49:21;8.27;;;5.95;;
38083;SDS011;23894;51.466;7.444;2023-05-10T02:51:24;8.48;;;5.57;;
38083;SDS011;23894;51.466;7.444;2023-05-10T02:53:30;7.38;;;5.53;;
38083;SDS011;23894;51.466;7.444;2023-05-10T02:55:32;8.15;;;4.97;;
38083;SDS011;23894;51.466;7.444;2023-05-10T02:57:36;6.47;;;3.78;;
38083;SDS011;23894;51.466;7.444;2023-05-10T02:59:40;6.25;;;3.72;;
38083;SDS011;23894;51.466;7.444;2023-05-10T03:01:42;6.10;;;3.70;;
38083;SDS011;23894;51.466;7.444;2023-05-10T03:03:43;5.30;;;2.80;;
38083;SDS011;23894;51.466;7.444;2023-05-10T03:05:44;5.22;;;2.85;;
38083;SDS011;23894;51.466;7.444;2023-05-10T03:07:45;6.10;;;2.72;;
38083;SDS011;23894;51.466;7.444;2023-05-10T03:09:47;6.32;;;2.70;;
38083;SDS011;23894;51.466;7.444;2023-05-10T03:12:06;6.40;;;3.00;;
38083;SDS011;23894;51.466;7.444;2023-05-10T03:16:29;5.83;;;2.83;;
38083;SDS011;23894;51.466;7.444;2023-05-10T03:18:42;6.35;;;3.00;;
38083;SDS011;23894;51.466;7.444;2023-05-10T03:20:48;6.00;;;3.28;;
38083;SDS011;23894;51.466;7.444;2023-05-10T03:22:51;9.70;;;6.15;;
38083;SDS011;23894;51.466;7.444;2023-05-10T03:24:55;12.85;;;9.50;;
38083;SDS011;23894;51.466;7.444;2023-05-10T03:26:58;13.30;;;10.65;;
38083;SDS011;23894;51.466;7.444;2023-05-10T03:28:59;16.67;;;12.40;;
38083;SDS011;23894;51.466;7.444;2023-05-10T03:31:01;21.48;;;15.10;;
38083;SDS011;23894;51.466;7.444;2023-05-10T03:33:06;17.63;;;14.43;;
38083;SDS011;23894;51.466;7.444;2023-05-10T03:35:07;19.52;;;15.13;;
38083;SDS011;23894;51.466;7.444;2023-05-10T03:37:09;18.70;;;15.50;;
38083;SDS011;23894;51.466;7.444;2023-05-10T03:39:10;20.58;;;15.93;;
38083;SDS011;23894;51.466;7.444;2023-05-10T03:41:11;23.02;;;16.55;;
38083;SDS011;23894;51.466;7.444;2023-05-10T03:43:12;21.00;;;16.15;;
38083;SDS011;23894;51.466;7.444;2023-05-10T03:45:13;22.90;;;16.95;;
38083;SDS011;23894;51.466;7.444;2023-05-10T03:47:14;19.10;;;15.15;;
38083;SDS011;23894;51.466;7.444;2023-05-10T03:49:16;24.80;;;17.52;;
38083;SDS011;23894;51.466;7.444;2023-05-10T03:51:17;22.58;;;16.08;;
38083;SDS011;23894;51.466;7.444;2023-05-10T03:53:17;21.55;;;16.70;;
38083;SDS011;23894;51.466;7.444;2023-05-10T03:55:19;23.50;;;16.90;;
38083;SDS011;23894;51.466;7.444;2023-05-10T03:57:20;25.85;;;17.42;;
38083;SDS011;23894;51.466;7.444;2023-05-10T03:59:21;21.10;;;16.00;;
38083;SDS011;23894;51.466;7.444;2023-05-10T04:01:22;21.60;;;16.67;;
38083;SDS011;23894;51.466;7.444;2023-05-10T04:03:23;19.83;;;15.68;;
38083;SDS011;23894;51.466;7.444;2023-05-10T04:05:25;21.33;;;16.30;;
38083;SDS011;23894;51.466;7.444;2023-05-10T04:07:26;21.08;;;16.60;;
38083;SDS011;23894;51.466;7.444;2023-05-10T04:09:27;21.40;;;16.37;;
38083;SDS011;23894;51.466;7.444;2023-05-10T04:11:28;21.50;;;15.93;;
38083;SDS011;23894;51.466;7.444;2023-05-10T04:13:29;23.05;;;16.23;;
38083;SDS011;23894;51.466;7.444;2023-05-10T04:15:30;21.83;;;16.50;;
38083;SDS011;23894;51.466;7.444;2023-05-10T04:17:31;18.63;;;15.38;;
38083;SDS011;23894;51.466;7.444;2023-05-10T04:19:32;20.30;;;15.13;;
38083;SDS011;23894;51.466;7.444;2023-05-10T04:21:33;16.98;;;14.18;;
38083;SDS011;23894;51.466;7.444;2023-05-10T04:23:35;21.27;;;15.07;;
38083;SDS011;23894;51.466;7.444;2023-05-10T04:25:36;26.58;;;16.38;;
38083;SDS011;23894;51.466;7.444;2023-05-10T04:27:37;22.50;;;14.38;;
38083;SDS011;23894;51.466;7.444;2023-05-10T04:29:38;24.50;;;14.98;;
38083;SDS011;23894;51.466;7.444;2023-05-10T04:31:39;18.08;;;13.88;;
38083;SDS011;23894;51.466;7.444;2023-05-10T04:33:40;22.52;;;14.77;;
38083;SDS011;23894;51.466;7.444;2023-05-10T04:35:41;22.42;;;15.07;;
38083;SDS011;23894;51.466;7.444;2023-05-10T04:37:42;20.90;;;14.52;;
38083;SDS011;23894;51.466;7.444;2023-05-10T04:39:43;21.20;;;14.05;;
38083;SDS011;23894;51.466;7.444;2023-05-10T04:41:44;18.67;;;13.40;;
38083;SDS011;23894;51.466;7.444;2023-05-10T04:43:45;21.27;;;14.57;;
38083;SDS011;23894;51.466;7.444;2023-05-10T04:45:48;19.30;;;13.98;;
38083;SDS011;23894;51.466;7.444;2023-05-10T04:47:50;22.13;;;14.23;;
38083;SDS011;23894;51.466;7.444;2023-05-10T04:49:51;22.50;;;14.48;;
38083;SDS011;23894;51.466;7.444;2023-05-10T04:51:52;21.55;;;14.82;;
38083;SDS011;23894;51.466;7.444;2023-05-10T04:53:53;21.15;;;15.27;;
38083;SDS011;23894;51.466;7.444;2023-05-10T04:55:54;21.98;;;16.65;;
38083;SDS011;23894;51.466;7.444;2023-05-10T04:57:55;22.50;;;18.07;;
38083;SDS011;23894;51.466;7.444;2023-05-10T04:59:57;24.35;;;18.45;;
38083;SDS011;23894;51.466;7.444;2023-05-10T05:01:58;25.23;;;19.08;;
38083;SDS011;23894;51.466;7.444;2023-05-10T05:03:59;24.00;;;18.77;;
38083;SDS011;23894;51.466;7.444;2023-05-10T05:06:00;25.38;;;19.13;;
38083;SDS011;23894;51.466;7.444;2023-05-10T05:08:01;23.33;;;18.20;;
38083;SDS011;23894;51.466;7.444;2023-05-10T05:10:02;25.30;;;19.33;;
38083;SDS011;23894;51.466;7.444;2023-05-10T05:12:03;24.35;;;19.00;;
38083;SDS011;23894;51.466;7.444;2023-05-10T05:14:04;23.00;;;19.35;;
38083;SDS011;23894;51.466;7.444;2023-05-10T05:16:05;28.00;;;20.60;;
38083;SDS011;23894;51.466;7.444;2023-05-10T05:18:06;27.45;;;21.17;;
38083;SDS011;23894;51.466;7.444;2023-05-10T05:20:08;28.33;;;22.73;;
38083;SDS011;23894;51.466;7.444;2023-05-10T05:22:09;29.17;;;23.50;;
38083;SDS011;23894;51.466;7.444;2023-05-10T05:24:10;33.63;;;24.63;;
38083;SDS011;23894;51.466;7.444;2023-05-10T05:26:12;30.52;;;24.33;;
38083;SDS011;23894;51.466;7.444;2023-05-10T05:28:14;35.83;;;25.02;;
38083;SDS011;23894;51.466;7.444;2023-05-10T05:30:15;38.15;;;26.27;;
38083;SDS011;23894;51.466;7.444;2023-05-10T05:32:16;32.80;;;25.13;;
38083;SDS011;23894;51.466;7.444;2023-05-10T05:34:17;37.60;;;27.77;;
38083;SDS011;23894;51.466;7.444;2023-05-10T05:36:20;40.25;;;27.95;;
38083;SDS011;23894;51.466;7.444;2023-05-10T05:38:21;35.35;;;26.75;;
38083;SDS011;23894;51.466;7.444;2023-05-10T05:40:23;40.13;;;28.58;;
38083;SDS011;23894;51.466;7.444;2023-05-10T05:42:24;41.38;;;29.52;;
38083;SDS011;23894;51.466;7.444;2023-05-10T05:44:25;35.10;;;28.40;;
38083;SDS011;23894;51.466;7.444;2023-05-10T05:46:28;35.63;;;29.33;;
38083;SDS011;23894;51.466;7.444;2023-05-10T05:48:30;38.63;;;29.63;;
38083;SDS011;23894;51.466;7.444;2023-05-10T05:50:31;40.63;;;30.90;;
38083;SDS011;23894;51.466;7.444;2023-05-10T05:52:32;40.37;;;30.87;;
38083;SDS011;23894;51.466;7.444;2023-05-10T05:54:33;37.00;;;29.08;;
38083;SDS011;23894;51.466;7.444;2023-05-10T05:56:34;45.00;;;32.37;;
38083;SDS011;23894;51.466;7.444;2023-05-10T05:58:35;42.40;;;31.90;;
38083;SDS011;23894;51.466;7.444;2023-05-10T06:00:36;44.10;;;30.92;;
38083;SDS011;23894;51.466;7.444;2023-05-10T06:02:37;42.10;;;31.67;;
38083;SDS011;23894;51.466;7.444;2023-05-10T06:04:38;40.28;;;32.17;;
38083;SDS011;23894;51.466;7.444;2023-05-10T06:06:39;44.60;;;32.53;;
38083;SDS011;23894;51.466;7.444;2023-05-10T06:08:40;43.40;;;32.95;;
38083;SDS011;23894;51.466;7.444;2023-05-10T06:10:41;44.25;;;33.15;;
38083;SDS011;23894;51.466;7.444;2023-05-10T06:12:42;43.65;;;34.53;;
38083;SDS011;23894;51.466;7.444;2023-05-10T06:14:43;45.97;;;33.97;;
38083;SDS011;23894;51.466;7.444;2023-05-10T06:16:44;48.60;;;34.57;;
38083;SDS011;23894;51.466;7.444;2023-05-10T06:18:45;44.22;;;33.35;;
38083;SDS011;23894;51.466;7.444;2023-05-10T06:20:46;46.10;;;35.17;;
38083;SDS011;23894;51.466;7.444;2023-05-10T06:22:47;48.35;;;36.17;;
38083;SDS011;23894;51.466;7.444;2023-05-10T06:24:49;46.35;;;35.22;;
38083;SDS011;23894;51.466;7.444;2023-05-10T06:26:50;52.90;;;37.85;;
38083;SDS011;23894;51.466;7.444;2023-05-10T06:28:51;48.30;;;38.15;;
38083;SDS011;23894;51.466;7.444;2023-05-10T06:30:52;55.33;;;40.13;;
38083;SDS011;23894;51.466;7.444;2023-05-10T06:32:53;49.72;;;39.13;;
38083;SDS011;23894;51.466;7.444;2023-05-10T06:34:54;51.83;;;39.45;;
38083;SDS011;23894;51.466;7.444;2023-05-10T06:36:55;51.08;;;38.38;;
38083;SDS011;23894;51.466;7.444;2023-05-10T06:38:56;48.65;;;39.03;;
38083;SDS011;23894;51.466;7.444;2023-05-10T06:40:57;52.50;;;38.63;;
38083;SDS011;23894;51.466;7.444;2023-05-10T06:42:58;50.20;;;38.30;;
38083;SDS011;23894;51.466;7.444;2023-05-10T06:44:59;45.80;;;37.37;;
38083;SDS011;23894;51.466;7.444;2023-05-10T06:47:00;50.10;;;38.03;;
38083;SDS011;23894;51.466;7.444;2023-05-10T06:49:01;48.25;;;37.40;;
38083;SDS011;23894;51.466;7.444;2023-05-10T06:51:02;47.00;;;36.85;;
38083;SDS011;23894;51.466;7.444;2023-05-10T06:53:03;45.95;;;37.40;;
38083;SDS011;23894;51.466;7.444;2023-05-10T06:55:04;49.15;;;38.40;;
38083;SDS011;23894;51.466;7.444;2023-05-10T06:57:05;46.67;;;38.10;;
38083;SDS011;23894;51.466;7.444;2023-05-10T06:59:06;50.05;;;38.95;;
38083;SDS011;23894;51.466;7.444;2023-05-10T07:01:07;45.75;;;37.15;;
38083;SDS011;23894;51.466;7.444;2023-05-10T07:03:09;46.72;;;38.88;;
38083;SDS011;23894;51.466;7.444;2023-05-10T07:05:10;46.10;;;38.57;;
38083;SDS011;23894;51.466;7.444;2023-05-10T07:07:12;47.58;;;38.90;;
38083;SDS011;23894;51.466;7.444;2023-05-10T07:09:13;55.13;;;41.35;;
38083;SDS011;23894;51.466;7.444;2023-05-10T07:11:14;50.08;;;39.80;;
38083;SDS011;23894;51.466;7.444;2023-05-10T07:13:15;47.33;;;39.75;;
38083;SDS011;23894;51.466;7.444;2023-05-10T07:15:16;51.42;;;39.67;;
38083;SDS011;23894;51.466;7.444;2023-05-10T07:17:17;49.20;;;39.13;;
38083;SDS011;23894;51.466;7.444;2023-05-10T07:19:18;45.23;;;38.00;;
38083;SDS011;23894;51.466;7.444;2023-05-10T07:21:19;47.80;;;38.53;;
38083;SDS011;23894;51.466;7.444;2023-05-10T07:23:20;45.47;;;36.67;;
38083;SDS011;23894;51.466;7.444;2023-05-10T07:25:21;44.40;;;37.40;;
38083;SDS011;23894;51.466;7.444;2023-05-10T07:27:22;44.03;;;36.15;;
38083;SDS011;23894;51.466;7.444;2023-05-10T07:29:23;42.88;;;35.22;;
38083;SDS011;23894;51.466;7.444;2023-05-10T07:31:24;43.30;;;35.35;;
38083;SDS011;23894;51.466;7.444;2023-05-10T07:33:25;43.63;;;35.45;;
38083;SDS011;23894;51.466;7.444;2023-05-10T07:35:26;41.78;;;34.70;;
38083;SDS011;23894;51.466;7.444;2023-05-10T07:37:27;38.72;;;33.03;;
38083;SDS011;23894;51.466;7.444;2023-05-10T07:39:28;37.70;;;30.93;;
38083;SDS011;23894;51.466;7.444;2023-05-10T07:41:29;38.67;;;31.58;;
38083;SDS011;23894;51.466;7.444;2023-05-10T07:43:31;36.38;;;31.25;;
38083;SDS011;23894;51.466;7.444;2023-05-10T07:45:32;35.85;;;30.70;;
38083;SDS011;23894;51.466;7.444;2023-05-10T07:47:33;35.17;;;30.13;;
38083;SDS011;23894;51.466;7.444;2023-05-10T07:49:34;37.40;;;30.33;;
38083;SDS011;23894;51.466;7.444;2023-05-10T07:51:35;35.85;;;30.02;;
38083;SDS011;23894;51.466;7.444;2023-05-10T07:53:37;36.83;;;29.67;;
38083;SDS011;23894;51.466;7.444;2023-05-10T07:55:38;33.60;;;27.85;;
38083;SDS011;23894;51.466;7.444;2023-05-10T07:57:39;35.72;;;27.90;;
38083;SDS011;23894;51.466;7.444;2023-05-10T07:59:40;33.00;;;27.67;;
38083;SDS011;23894;51.466;7.444;2023-05-10T08:01:42;32.65;;;27.88;;
38083;SDS011;23894;51.466;7.444;2023-05-10T08:03:43;36.28;;;28.58;;
38083;SDS011;23894;51.466;7.444;2023-05-10T08:05:44;37.35;;;30.45;;
38083;SDS011;23894;51.466;7.444;2023-05-10T08:07:45;37.05;;;30.77;;
38083;SDS011;23894;51.466;7.444;2023-05-10T08:09:46;37.80;;;30.67;;
38083;SDS011;23894;51.466;7.444;2023-05-10T08:11:47;39.05;;;31.42;;
38083;SDS011;23894;51.466;7.444;2023-05-10T08:13:48;42.85;;;34.60;;
38083;SDS011;23894;51.466;7.444;2023-05-10T08:15:49;44.25;;;34.45;;
38083;SDS011;23894;51.466;7.444;2023-05-10T08:17:52;43.80;;;35.13;;
38083;SDS011;23894;51.466;7.444;2023-05-10T08:19:54;43.53;;;35.47;;
38083;SDS011;23894;51.466;7.444;2023-05-10T08:21:55;42.85;;;35.72;;
38083;SDS011;23894;51.466;7.444;2023-05-10T08:23:57;42.08;;;35.60;;
38083;SDS011;23894;51.466;7.444;2023-05-10T08:25:58;43.53;;;37.20;;
38083;SDS011;23894;51.466;7.444;2023-05-10T08:27:59;48.97;;;37.95;;
38083;SDS011;23894;51.466;7.444;2023-05-10T08:30:00;46.97;;;37.28;;
38083;SDS011;23894;51.466;7.444;2023-05-10T08:32:01;38.53;;;30.98;;
38083;SDS011;23894;51.466;7.444;2023-05-10T08:34:02;31.85;;;26.88;;
38083;SDS011;23894;51.466;7.444;2023-05-10T08:36:03;29.55;;;22.92;;
38083;SDS011;23894;51.466;7.444;2023-05-10T08:38:04;27.95;;;21.25;;
38083;SDS011;23894;51.466;7.444;2023-05-10T08:40:06;23.58;;;18.90;;
38083;SDS011;23894;51.466;7.444;2023-05-10T08:42:07;25.23;;;18.13;;
38083;SDS011;23894;51.466;7.444;2023-05-10T08:44:08;22.63;;;17.25;;
38083;SDS011;23894;51.466;7.444;2023-05-10T08:46:10;23.48;;;17.85;;
38083;SDS011;23894;51.466;7.444;2023-05-10T08:48:11;22.52;;;16.63;;
38083;SDS011;23894;51.466;7.444;2023-05-10T08:50:12;23.10;;;16.95;;
38083;SDS011;23894;51.466;7.444;2023-05-10T08:52:13;21.77;;;16.30;;
38083;SDS011;23894;51.466;7.444;2023-05-10T08:54:15;23.33;;;17.38;;
38083;SDS011;23894;51.466;7.444;2023-05-10T08:56:16;24.30;;;17.17;;
38083;SDS011;23894;51.466;7.444;2023-05-10T08:58:18;25.85;;;17.70;;
38083;SDS011;23894;51.466;7.444;2023-05-10T09:00:20;24.35;;;16.98;;
38083;SDS011;23894;51.466;7.444;2023-05-10T09:02:23;22.40;;;16.83;;
38083;SDS011;23894;51.466;7.444;2023-05-10T09:04:24;22.30;;;17.20;;
38083;SDS011;23894;51.466;7.444;2023-05-10T09:06:25;24.95;;;18.25;;
38083;SDS011;23894;51.466;7.444;2023-05-10T09:08:26;27.15;;;19.83;;
38083;SDS011;23894;51.466;7.444;2023-05-10T09:10:27;26.48;;;19.10;;
38083;SDS011;23894;51.466;7.444;2023-05-10T09:12:30;25.98;;;19.52;;
38083;SDS011;23894;51.466;7.444;2023-05-10T09:14:31;27.33;;;19.33;;
38083;SDS011;23894;51.466;7.444;2023-05-10T09:16:34;28.42;;;20.98;;
38083;SDS011;23894;51.466;7.444;2023-05-10T09:18:35;28.88;;;21.88;;
38083;SDS011;23894;51.466;7.444;2023-05-10T09:20:36;27.65;;;21.23;;
38083;SDS011;23894;51.466;7.444;2023-05-10T09:22:37;29.45;;;21.77;;
38083;SDS011;23894;51.466;7.444;2023-05-10T09:24:38;25.85;;;20.77;;
38083;SDS011;23894;51.466;7.444;2023-05-10T09:26:47;26.42;;;19.58;;
38083;SDS011;23894;51.466;7.444;2023-05-10T09:30:53;28.67;;;20.42;;
38083;SDS011;23894;51.466;7.444;2023-05-10T09:32:56;27.15;;;19.67;;
38083;SDS011;23894;51.466;7.444;2023-05-10T09:34:57;28.30;;;20.48;;
38083;SDS011;23894;51.466;7.444;2023-05-10T09:37:06;25.52;;;19.55;;
38083;SDS011;23894;51.466;7.444;2023-05-10T09:39:08;22.23;;;17.13;;
38083;SDS011;23894;51.466;7.444;2023-05-10T09:41:15;21.50;;;16.27;;
38083;SDS011;23894;51.466;7.444;2023-05-10T09:43:17;18.67;;;14.07;;
38083;SDS011;23894;51.466;7.444;2023-05-10T09:45:18;17.10;;;12.50;;
38083;SDS011;23894;51.466;7.444;2023-05-10T09:47:19;13.75;;;10.60;;
38083;SDS011;23894;51.466;7.444;2023-05-10T09:49:21;14.50;;;9.82;;
38083;SDS011;23894;51.466;7.444;2023-05-10T09:51:24;15.50;;;10.23;;
38083;SDS011;23894;51.466;7.444;2023-05-10T09:53:26;16.65;;;12.38;;
38083;SDS011;23894;51.466;7.444;2023-05-10T09:55:40;16.05;;;12.00;;
38083;SDS011;23894;51.466;7.444;2023-05-10T09:57:42;16.75;;;12.80;;
38083;SDS011;23894;51.466;7.444;2023-05-10T09:59:43;16.67;;;12.30;;
38083;SDS011;23894;51.466;7.444;2023-05-10T10:01:51;14.93;;;11.52;;
38083;SDS011;23894;51.466;7.444;2023-05-10T10:03:52;14.93;;;11.55;;
38083;SDS011;23894;51.466;7.444;2023-05-10T10:05:53;15.95;;;11.43;;
38083;SDS011;23894;51.466;7.444;2023-05-10T10:07:58;14.95;;;11.38;;
38083;SDS011;23894;51.466;7.444;2023-05-10T10:10:00;15.77;;;11.15;;
38083;SDS011;23894;51.466;7.444;2023-05-10T10:12:02;13.32;;;10.07;;
38083;SDS011;23894;51.466;7.444;2023-05-10T10:14:04;13.75;;;10.25;;
38083;SDS011;23894;51.466;7.444;2023-05-10T10:16:05;15.20;;;9.90;;
38083;SDS011;23894;51.466;7.444;2023-05-10T10:18:06;14.05;;;9.95;;
38083;SDS011;23894;51.466;7.444;2023-05-10T10:20:08;13.45;;;10.10;;
38083;SDS011;23894;51.466;7.444;2023-05-10T10:22:09;15.45;;;10.80;;
38083;SDS011;23894;51.466;7.444;2023-05-10T10:24:11;13.85;;;9.80;;
38083;SDS011;23894;51.466;7.444;2023-05-10T10:26:12;13.40;;;9.93;;
38083;SDS011;23894;51.466;7.444;2023-05-10T10:28:29;13.50;;;9.80;;
38083;SDS011;23894;51.466;7.444;2023-05-10T10:30:37;14.38;;;10.75;;
38083;SDS011;23894;51.466;7.444;2023-05-10T10:34:46;14.10;;;10.13;;
38083;SDS011;23894;51.466;7.444;2023-05-10T10:36:48;16.17;;;11.10;;
38083;SDS011;23894;51.466;7.444;2023-05-10T10:38:56;16.23;;;11.43;;
38083;SDS011;23894;51.466;7.444;2023-05-10T10:41:06;16.75;;;12.48;;
38083;SDS011;23894;51.466;7.444;2023-05-10T10:43:24;17.35;;;12.07;;
38083;SDS011;23894;51.466;7.444;2023-05-10T10:45:25;17.27;;;12.52;;
38083;SDS011;23894;51.466;7.444;2023-05-10T10:47:28;16.25;;;11.52;;
38083;SDS011;23894;51.466;7.444;2023-05-10T10:49:33;15.55;;;10.75;;
38083;SDS011;23894;51.466;7.444;2023-05-10T10:51:40;15.60;;;11.10;;
38083;SDS011;23894;51.466;7.444;2023-05-10T10:54:04;22.45;;;16.20;;
38083;SDS011;23894;51.466;7.444;2023-05-10T10:56:12;25.38;;;19.58;;
38083;SDS011;23894;51.466;7.444;2023-05-10T10:58:30;29.30;;;21.98;;
38083;SDS011;23894;51.466;7.444;2023-05-10T11:00:32;31.10;;;23.33;;
38083;SDS011;23894;51.466;7.444;2023-05-10T11:02:34;33.97;;;23.97;;
38083;SDS011;23894;51.466;7.444;2023-05-10T11:04:42;27.85;;;21.98;;
38083;SDS011;23894;51.466;7.444;2023-05-10T11:06:46;26.50;;;20.73;;
38083;SDS011;23894;51.466;7.444;2023-05-10T11:08:47;25.15;;;18.63;;
38083;SDS011;23894;51.466;7.444;2023-05-10T11:10:50;24.65;;;18.02;;
38083;SDS011;23894;51.466;7.444;2023-05-10T11:13:08;20.95;;;15.95;;
38083;SDS011;23894;51.466;7.444;2023-05-10T11:15:09;20.65;;;15.43;;
38083;SDS011;23894;51.466;7.444;2023-05-10T11:17:23;20.75;;;15.77;;
38083;SDS011;23894;51.466;7.444;2023-05-10T11:19:24;22.38;;;16.17;;
38083;SDS011;23894;51.466;7.444;2023-05-10T11:21:29;22.67;;;15.50;;
38083;SDS011;23894;51.466;7.444;2023-05-10T11:23:31;20.42;;;15.18;;
38083;SDS011;23894;51.466;7.444;2023-05-10T11:25:32;19.23;;;14.63;;
38083;SDS011;23894;51.466;7.444;2023-05-10T11:27:36;22.38;;;15.48;;
38083;SDS011;23894;51.466;7.444;2023-05-10T11:29:37;18.70;;;14.00;;
38083;SDS011;23894;51.466;7.444;2023-05-10T11:31:42;18.83;;;14.05;;
38083;SDS011;23894;51.466;7.444;2023-05-10T11:35:48;17.23;;;13.45;;
38083;SDS011;23894;51.466;7.444;2023-05-10T11:37:49;16.40;;;12.70;;
38083;SDS011;23894;51.466;7.444;2023-05-10T11:39:50;16.20;;;12.98;;
38083;SDS011;23894;51.466;7.444;2023-05-10T11:41:51;15.50;;;11.93;;
38083;SDS011;23894;51.466;7.444;2023-05-10T11:43:53;17.10;;;12.80;;
38083;SDS011;23894;51.466;7.444;2023-05-10T11:45:54;15.85;;;13.30;;
38083;SDS011;23894;51.466;7.444;2023-05-10T11:47:55;19.92;;;17.17;;
38083;SDS011;23894;51.466;7.444;2023-05-10T11:49:57;19.55;;;17.45;;
38083;SDS011;23894;51.466;7.444;2023-05-10T11:52:07;20.58;;;18.17;;
38083;SDS011;23894;51.466;7.444;2023-05-10T11:54:11;21.77;;;18.50;;
38083;SDS011;23894;51.466;7.444;2023-05-10T11:56:12;20.75;;;17.88;;
38083;SDS011;23894;51.466;7.444;2023-05-10T11:58:13;23.73;;;19.20;;
38083;SDS011;23894;51.466;7.444;2023-05-10T12:00:14;21.70;;;17.88;;
38083;SDS011;23894;51.466;7.444;2023-05-10T12:02:15;22.48;;;18.20;;
38083;SDS011;23894;51.466;7.444;2023-05-10T12:04:16;21.50;;;18.58;;
38083;SDS011;23894;51.466;7.444;2023-05-10T12:06:21;20.63;;;17.80;;
38083;SDS011;23894;51.466;7.444;2023-05-10T12:08:22;21.15;;;18.55;;
38083;SDS011;23894;51.466;7.444;2023-05-10T12:10:25;21.30;;;17.58;;
38083;SDS011;23894;51.466;7.444;2023-05-10T12:12:27;20.17;;;17.03;;
38083;SDS011;23894;51.466;7.444;2023-05-10T12:14:28;21.83;;;17.90;;
38083;SDS011;23894;51.466;7.444;2023-05-10T12:16:33;19.45;;;16.88;;
38083;SDS011;23894;51.466;7.444;2023-05-10T12:18:34;19.02;;;15.77;;